createdAt,value
2023-01-30T00:00:23.158Z,14.20
2023-01-30T00:02:58.228Z,15.43
2023-01-30T00:05:31.848Z,14.50
2023-01-30T00:08:05.721Z,12.45
2023-01-30T00:10:39.293Z,13.20
2023-01-30T00:13:14.574Z,13.75
2023-01-30T00:15:49.627Z,12.90
2023-01-30T00:18:24.602Z,14.55
2023-01-30T00:20:58.637Z,14.70
2023-01-30T00:23:33.483Z,15.02
2023-01-30T00:26:07.972Z,14.55
2023-01-30T00:28:42.023Z,15.07
2023-01-30T00:31:15.663Z,13.20
2023-01-30T00:33:50.789Z,14.38
2023-01-30T00:36:24.359Z,15.48
2023-01-30T00:38:59.284Z,14.32
2023-01-30T00:41:46.636Z,13.73
2023-01-30T00:44:37.397Z,12.13
2023-01-30T00:47:11.489Z,14.30
2023-01-30T00:49:46.472Z,13.07
2023-01-30T00:52:19.964Z,13.77
2023-01-30T00:54:53.510Z,14.48
2023-01-30T00:57:27.074Z,14.38
2023-01-30T01:00:00.784Z,13.30
2023-01-30T01:02:34.361Z,13.25
2023-01-30T01:05:10.248Z,13.75
2023-01-30T01:07:43.811Z,14.32
2023-01-30T01:10:18.264Z,14.07
2023-01-30T01:12:53.518Z,12.25
2023-01-30T01:15:28.145Z,13.27
2023-01-30T01:18:01.752Z,14.43
2023-01-30T01:20:36.845Z,13.75
2023-01-30T01:23:12.081Z,13.23
2023-01-30T01:25:45.752Z,13.75
2023-01-30T01:28:22.300Z,13.20
2023-01-30T01:30:55.839Z,14.95
2023-01-30T01:33:29.417Z,14.48
2023-01-30T01:36:04.833Z,15.13
2023-01-30T01:38:39.041Z,13.70
2023-01-30T01:41:18.590Z,14.90
2023-01-30T01:44:04.604Z,13.05
2023-01-30T01:46:42.062Z,13.52
2023-01-30T01:49:21.026Z,13.63
2023-01-30T01:52:00.365Z,14.15
2023-01-30T01:54:36.978Z,14.10
2023-01-30T01:57:17.184Z,13.60
2023-01-30T01:59:54.046Z,13.38
2023-01-30T02:02:28.069Z,13.60
2023-01-30T02:05:06.926Z,13.77
2023-01-30T02:07:47.167Z,15.02
2023-01-30T02:10:24.738Z,14.05
2023-01-30T02:12:58.340Z,13.25
2023-01-30T02:15:32.379Z,12.10
2023-01-30T02:18:06.353Z,11.05
2023-01-30T02:20:55.848Z,13.23
2023-01-30T02:24:17.166Z,13.98
2023-01-30T02:27:19.834Z,12.93
2023-01-30T02:30:36.632Z,13.95
2023-01-30T02:33:18.320Z,14.60
2023-01-30T02:36:02.517Z,14.32
2023-01-30T02:38:48.651Z,14.10
2023-01-30T02:41:30.412Z,13.93
2023-01-30T02:44:06.777Z,12.30
2023-01-30T02:46:49.284Z,13.02
2023-01-30T02:49:29.895Z,15.70
2023-01-30T02:52:04.771Z,13.68
2023-01-30T02:54:38.459Z,13.38
2023-01-30T02:57:21.964Z,13.57
2023-01-30T03:00:02.692Z,13.52
2023-01-30T03:03:10.750Z,12.63
2023-01-30T03:06:03.661Z,13.20
2023-01-30T03:08:48.217Z,11.93
2023-01-30T03:11:26.319Z,13.43
2023-01-30T03:14:06.562Z,12.98
2023-01-30T03:16:41.980Z,13.77
2023-01-30T03:19:20.228Z,13.18
2023-01-30T03:21:54.236Z,12.07
2023-01-30T03:24:28.139Z,13.25
2023-01-30T03:27:06.844Z,12.77
2023-01-30T03:29:41.577Z,13.43
2023-01-30T03:32:15.204Z,12.13
2023-01-30T03:34:50.821Z,11.90
2023-01-30T03:37:24.429Z,13.93
2023-01-30T03:39:58.243Z,12.00
2023-01-30T03:42:33.894Z,13.50
2023-01-30T03:45:08.594Z,12.40
2023-01-30T03:47:42.220Z,13.57
2023-01-30T03:50:17.585Z,10.73
2023-01-30T03:52:52.485Z,10.82
2023-01-30T03:55:27.738Z,12.20
2023-01-30T03:58:01.607Z,12.50
2023-01-30T04:00:38.569Z,12.48
2023-01-30T04:03:12.227Z,12.10
2023-01-30T04:05:47.719Z,12.27
2023-01-30T04:08:21.283Z,12.15
2023-01-30T04:10:54.921Z,12.77
2023-01-30T04:13:29.719Z,11.35
2023-01-30T04:16:18.499Z,13.95
2023-01-30T04:19:10.846Z,12.88
2023-01-30T04:21:45.814Z,12.10
2023-01-30T04:24:19.401Z,11.70
2023-01-30T04:26:52.932Z,13.73
2023-01-30T04:29:26.760Z,15.38
2023-01-30T04:32:01.914Z,14.85
2023-01-30T04:34:40.323Z,14.02
2023-01-30T04:37:15.276Z,13.48
2023-01-30T04:39:49.390Z,14.32
2023-01-30T04:42:23.168Z,13.63
2023-01-30T04:45:16.919Z,13.48
2023-01-30T04:47:50.864Z,11.93
2023-01-30T04:50:24.441Z,13.23
2023-01-30T04:52:59.343Z,13.00
2023-01-30T04:55:32.945Z,12.10
2023-01-30T04:58:06.703Z,12.82
2023-01-30T05:00:40.727Z,11.95
2023-01-30T05:03:15.100Z,12.27
2023-01-30T05:05:49.203Z,14.40
2023-01-30T05:08:24.184Z,13.90
2023-01-30T05:10:59.319Z,12.55
2023-01-30T05:13:32.834Z,13.13
2023-01-30T05:16:06.770Z,14.30
2023-01-30T05:18:40.316Z,15.60
2023-01-30T05:21:15.689Z,13.82
2023-01-30T05:23:50.596Z,11.95
2023-01-30T05:26:25.141Z,14.27
2023-01-30T05:28:59.434Z,13.10
2023-01-30T05:31:35.432Z,15.18
2023-01-30T05:34:12.094Z,13.95
2023-01-30T05:36:45.895Z,13.82
2023-01-30T05:39:20.848Z,14.10
2023-01-30T05:41:54.347Z,14.32
2023-01-30T05:44:28.060Z,12.00
2023-01-30T05:47:01.600Z,12.07
2023-01-30T05:49:35.103Z,12.05
2023-01-30T05:52:08.679Z,11.45
2023-01-30T05:54:43.664Z,12.70
2023-01-30T05:57:17.207Z,13.02
2023-01-30T05:59:50.825Z,13.15
2023-01-30T06:02:24.446Z,12.40
2023-01-30T06:04:57.997Z,13.95
2023-01-30T06:07:31.535Z,13.98
2023-01-30T06:10:07.226Z,14.55
2023-01-30T06:12:40.707Z,13.70
2023-01-30T06:15:14.243Z,13.75
2023-01-30T06:17:47.923Z,14.10
2023-01-30T06:20:21.626Z,14.05
2023-01-30T06:22:55.193Z,15.55
2023-01-30T06:25:30.177Z,14.95
2023-01-30T06:28:03.727Z,13.63
2023-01-30T06:30:37.349Z,11.75
2023-01-30T06:33:11.191Z,13.10
2023-01-30T06:35:45.597Z,17.42
2023-01-30T06:38:20.472Z,15.82
2023-01-30T06:40:55.484Z,16.92
2023-01-30T06:43:29.061Z,14.75
2023-01-30T06:46:02.829Z,22.20
2023-01-30T06:48:36.433Z,32.53
2023-01-30T06:51:10.000Z,29.90
2023-01-30T06:53:43.559Z,30.65
2023-01-30T06:56:18.541Z,24.02
2023-01-30T06:58:52.072Z,26.13
2023-01-30T07:01:27.311Z,25.67
2023-01-30T07:04:02.197Z,15.85
2023-01-30T07:06:35.765Z,15.20
2023-01-30T07:09:09.296Z,15.82
2023-01-30T07:11:44.254Z,15.23
2023-01-30T07:14:17.821Z,13.98
2023-01-30T07:16:51.387Z,13.95
2023-01-30T07:19:25.004Z,18.10
2023-01-30T07:21:58.528Z,12.60
2023-01-30T07:24:32.117Z,14.77
2023-01-30T07:27:10.658Z,16.33
2023-01-30T07:29:44.255Z,13.02
2023-01-30T07:32:19.941Z,11.88
2023-01-30T07:34:53.434Z,10.50
2023-01-30T07:37:26.947Z,13.70
2023-01-30T07:40:00.523Z,12.40
2023-01-30T07:42:35.549Z,12.48
2023-01-30T07:45:10.148Z,11.73
2023-01-30T07:47:43.672Z,11.27
2023-01-30T07:50:18.192Z,10.82
2023-01-30T07:52:51.815Z,13.43
2023-01-30T07:55:25.376Z,10.73
2023-01-30T07:58:00.404Z,10.80
2023-01-30T08:00:34.352Z,12.48
2023-01-30T08:03:07.889Z,14.00
2023-01-30T08:05:41.402Z,14.07
2023-01-30T08:08:14.987Z,9.05
2023-01-30T08:10:50.776Z,9.48
2023-01-30T08:13:25.783Z,8.63
2023-01-30T08:16:01.389Z,10.73
2023-01-30T08:18:36.137Z,9.77
2023-01-30T08:21:10.323Z,10.73
2023-01-30T08:23:44.486Z,10.43
2023-01-30T08:26:18.207Z,9.63
2023-01-30T08:28:53.527Z,21.98
2023-01-30T08:31:27.206Z,10.88
2023-01-30T08:34:00.802Z,10.27
2023-01-30T08:36:34.450Z,8.38
2023-01-30T08:39:08.502Z,10.25
2023-01-30T08:41:43.325Z,8.40
2023-01-30T08:44:18.417Z,9.68
2023-01-30T08:46:52.150Z,6.93
2023-01-30T08:49:25.723Z,6.80
2023-01-30T08:51:59.247Z,6.47
2023-01-30T08:54:33.426Z,6.55
2023-01-30T08:57:06.984Z,7.45
2023-01-30T08:59:41.939Z,7.97
2023-01-30T09:02:15.551Z,8.10
2023-01-30T09:04:49.391Z,6.82
2023-01-30T09:07:22.999Z,7.00
2023-01-30T09:09:56.740Z,5.75
2023-01-30T09:12:30.265Z,5.75
2023-01-30T09:15:06.326Z,6.25
2023-01-30T09:17:39.865Z,5.13
2023-01-30T09:20:14.003Z,4.60
2023-01-30T09:22:48.100Z,5.28
2023-01-30T09:25:21.802Z,5.75
2023-01-30T09:27:55.341Z,5.70
2023-01-30T09:30:30.523Z,5.57
2023-01-30T09:33:04.125Z,5.90
2023-01-30T09:35:37.912Z,6.03
2023-01-30T09:38:11.562Z,5.88
2023-01-30T09:40:55.403Z,6.10
2023-01-30T09:43:43.389Z,6.15
2023-01-30T09:46:29.531Z,5.65
2023-01-30T09:49:12.185Z,6.32
2023-01-30T09:51:57.025Z,6.10
2023-01-30T09:54:33.525Z,6.63
2023-01-30T09:57:21.704Z,5.75
2023-01-30T10:00:03.885Z,5.50
2023-01-30T10:02:53.646Z,5.13
2023-01-30T10:05:37.128Z,6.47
2023-01-30T10:08:44.398Z,5.55
2023-01-30T10:11:43.987Z,5.70
2023-01-30T10:14:40.837Z,5.82
2023-01-30T10:17:31.513Z,6.55
2023-01-30T10:20:31.605Z,6.30
2023-01-30T10:23:33.278Z,6.47
2023-01-30T10:26:11.761Z,5.82
2023-01-30T10:29:06.224Z,6.80
2023-01-30T10:31:46.044Z,6.20
2023-01-30T10:34:23.812Z,5.70
2023-01-30T10:37:03.399Z,5.88
2023-01-30T10:39:54.791Z,6.28
2023-01-30T10:42:36.248Z,6.28
2023-01-30T10:45:16.221Z,6.80
2023-01-30T10:48:01.869Z,6.60
2023-01-30T10:50:49.809Z,7.40
2023-01-30T10:53:29.785Z,5.78
2023-01-30T10:56:12.378Z,6.50
2023-01-30T10:58:54.616Z,5.72
2023-01-30T11:01:37.247Z,6.53
2023-01-30T11:06:49.777Z,6.80
2023-01-30T11:09:24.820Z,7.38
2023-01-30T11:12:00.406Z,6.55
2023-01-30T11:14:56.587Z,6.90
2023-01-30T11:17:33.531Z,6.18
2023-01-30T11:20:14.031Z,6.38
2023-01-30T11:22:49.984Z,6.80
2023-01-30T11:25:24.939Z,6.95
2023-01-30T11:28:03.247Z,7.40
2023-01-30T11:30:37.795Z,6.40
2023-01-30T11:33:15.490Z,5.97
2023-01-30T11:35:56.531Z,7.50
2023-01-30T11:38:31.857Z,5.68
2023-01-30T11:41:18.245Z,5.90
2023-01-30T11:43:52.068Z,5.95
2023-01-30T11:46:26.261Z,6.25
2023-01-30T11:49:44.927Z,6.82
2023-01-30T11:51:57.427Z,6.35
2023-01-30T11:54:34.114Z,7.90
2023-01-30T11:57:14.520Z,7.88
2023-01-30T11:59:50.745Z,6.97
2023-01-30T12:02:27.217Z,6.95
2023-01-30T12:05:03.675Z,6.68
2023-01-30T12:07:38.741Z,7.32
2023-01-30T12:10:28.024Z,6.90
2023-01-30T12:13:11.963Z,7.93
2023-01-30T12:15:48.647Z,7.15
2023-01-30T12:18:26.691Z,6.43
2023-01-30T12:21:02.356Z,7.30
2023-01-30T12:23:42.347Z,6.60
2023-01-30T12:26:19.598Z,7.10
2023-01-30T12:29:01.364Z,7.63
2023-01-30T12:31:39.095Z,7.00
2023-01-30T12:34:12.653Z,6.32
2023-01-30T12:36:53.523Z,6.45
2023-01-30T12:39:38.088Z,7.45
2023-01-30T12:42:29.352Z,7.15
2023-01-30T12:45:20.815Z,6.60
2023-01-30T12:48:25.502Z,6.43
2023-01-30T12:51:13.753Z,6.68
2023-01-30T12:53:59.589Z,7.95
2023-01-30T12:56:50.011Z,7.05
2023-01-30T12:59:30.578Z,6.97
2023-01-30T13:02:38.573Z,6.82
2023-01-30T13:05:28.185Z,6.93
2023-01-30T13:08:14.751Z,6.65
2023-01-30T13:10:53.169Z,7.38
2023-01-30T13:13:35.837Z,7.47
2023-01-30T13:18:55.166Z,7.18
2023-01-30T13:21:36.375Z,6.63
2023-01-30T13:24:22.649Z,8.07
2023-01-30T13:27:01.264Z,7.43
2023-01-30T13:29:38.395Z,8.05
2023-01-30T13:32:34.453Z,8.77
2023-01-30T13:35:18.532Z,8.02
2023-01-30T13:37:54.611Z,8.18
2023-01-30T13:40:34.752Z,7.45
2023-01-30T13:43:16.633Z,8.07
2023-01-30T13:45:52.835Z,8.13
2023-01-30T13:48:38.327Z,8.70
2023-01-30T13:51:28.843Z,8.15
2023-01-30T13:54:09.273Z,8.10
2023-01-30T13:56:47.852Z,7.85
2023-01-30T13:59:38.657Z,8.65
2023-01-30T14:02:20.565Z,8.63
2023-01-30T14:04:55.514Z,9.65
2023-01-30T14:07:33.885Z,9.65
2023-01-30T14:10:15.943Z,10.63
2023-01-30T14:12:52.168Z,9.60
2023-01-30T14:15:29.121Z,10.35
2023-01-30T14:18:07.564Z,10.30
2023-01-30T14:20:46.093Z,10.18
2023-01-30T14:23:29.963Z,10.40
2023-01-30T14:26:03.906Z,9.95
2023-01-30T14:28:48.543Z,9.88
2023-01-30T14:31:53.396Z,10.32
2023-01-30T14:34:42.633Z,9.57
2023-01-30T14:37:57.231Z,10.43
2023-01-30T14:40:49.558Z,10.45
2023-01-30T14:43:53.315Z,9.95
2023-01-30T14:46:55.102Z,9.80
2023-01-30T14:49:33.082Z,11.40
2023-01-30T14:52:24.764Z,10.85
2023-01-30T14:54:58.350Z,10.50
2023-01-30T14:57:34.835Z,11.40
2023-01-30T15:00:19.486Z,11.32
2023-01-30T15:02:56.137Z,11.00
2023-01-30T15:05:33.453Z,17.02
2023-01-30T15:08:12.374Z,18.20
2023-01-30T15:11:06.821Z,10.07
2023-01-30T15:14:00.167Z,12.35
2023-01-30T15:16:54.249Z,10.70
2023-01-30T15:19:53.953Z,11.82
2023-01-30T15:22:38.805Z,12.07
2023-01-30T15:25:33.902Z,10.93
2023-01-30T15:28:21.071Z,9.30
2023-01-30T15:31:06.775Z,11.95
2023-01-30T15:33:48.491Z,10.75
2023-01-30T15:36:26.526Z,12.20
2023-01-30T15:39:02.772Z,10.68
2023-01-30T15:41:42.825Z,11.60
2023-01-30T15:44:43.898Z,12.57
2023-01-30T15:47:42.212Z,12.27
2023-01-30T15:50:16.610Z,12.10
2023-01-30T15:52:54.013Z,12.23
2023-01-30T15:55:30.193Z,12.88
2023-01-30T15:58:07.773Z,10.68
2023-01-30T16:00:47.088Z,12.93
2023-01-30T16:03:24.604Z,12.13
2023-01-30T16:05:59.294Z,11.27
2023-01-30T16:08:35.592Z,11.60
2023-01-30T16:11:11.553Z,10.40
2023-01-30T16:13:45.274Z,12.25
2023-01-30T16:16:21.105Z,10.88
2023-01-30T16:19:00.706Z,11.25
2023-01-30T16:21:36.844Z,12.15
2023-01-30T16:24:17.180Z,11.73
2023-01-30T16:26:55.408Z,11.00
2023-01-30T16:29:32.026Z,10.85
2023-01-30T16:32:14.302Z,10.80
2023-01-30T16:34:49.338Z,11.10
2023-01-30T16:37:27.662Z,10.85
2023-01-30T16:40:14.199Z,11.45
2023-01-30T16:42:57.267Z,12.65
2023-01-30T16:46:15.483Z,11.48
2023-01-30T16:48:49.248Z,13.55
2023-01-30T16:51:25.657Z,18.15
2023-01-30T16:54:03.551Z,20.30
2023-01-30T16:56:37.144Z,14.27
2023-01-30T16:59:21.323Z,13.82
2023-01-30T17:01:55.584Z,13.98
2023-01-30T17:04:30.895Z,11.88
2023-01-30T17:07:06.359Z,12.32
2023-01-30T17:09:46.000Z,10.88
2023-01-30T17:12:37.182Z,13.23
2023-01-30T17:15:34.712Z,13.85
2023-01-30T17:18:09.927Z,11.45
2023-01-30T17:20:51.167Z,11.43
2023-01-30T17:23:26.163Z,10.15
2023-01-30T17:25:59.756Z,11.35
2023-01-30T17:28:33.284Z,12.38
2023-01-30T17:31:07.177Z,12.23
2023-01-30T17:33:40.952Z,14.05
2023-01-30T17:36:22.348Z,12.15
2023-01-30T17:38:59.855Z,13.40
2023-01-30T17:41:33.622Z,12.68
2023-01-30T17:44:08.291Z,13.48
2023-01-30T17:46:44.813Z,12.38
2023-01-30T17:49:20.605Z,12.13
2023-01-30T17:51:55.585Z,12.95
2023-01-30T17:54:31.056Z,14.68
2023-01-30T17:57:06.879Z,13.65
2023-01-30T17:59:40.679Z,13.38
2023-01-30T18:02:15.183Z,13.40
2023-01-30T18:04:48.751Z,13.02
2023-01-30T18:07:30.464Z,13.30
2023-01-30T18:10:05.839Z,12.13
2023-01-30T18:12:39.342Z,12.40
2023-01-30T18:15:15.033Z,14.25
2023-01-30T18:17:50.890Z,11.73
2023-01-30T18:20:24.574Z,11.80
2023-01-30T18:22:58.127Z,11.98
2023-01-30T18:25:33.581Z,13.93
2023-01-30T18:28:10.007Z,12.43
2023-01-30T18:30:43.603Z,13.93
2023-01-30T18:33:17.197Z,15.02
2023-01-30T18:35:50.850Z,14.68
2023-01-30T18:38:24.357Z,14.40
2023-01-30T18:40:59.345Z,16.00
2023-01-30T18:43:32.823Z,14.32
2023-01-30T18:46:08.170Z,13.75
2023-01-30T18:48:42.600Z,14.63
2023-01-30T18:51:19.007Z,14.15
2023-01-30T18:53:54.202Z,16.67
2023-01-30T18:56:31.343Z,14.88
2023-01-30T18:59:06.757Z,15.85
2023-01-30T19:01:42.647Z,16.98
2023-01-30T19:04:17.739Z,21.52
2023-01-30T19:06:51.275Z,19.00
2023-01-30T19:09:26.774Z,14.82
2023-01-30T19:12:19.167Z,15.90
2023-01-30T19:14:52.733Z,15.25
2023-01-30T19:17:26.307Z,23.90
2023-01-30T19:20:01.180Z,32.53
2023-01-30T19:22:34.691Z,25.02
2023-01-30T19:25:09.447Z,15.13
2023-01-30T19:27:44.560Z,17.45
2023-01-30T19:30:18.839Z,13.88
2023-01-30T19:32:54.346Z,14.27
2023-01-30T19:35:28.072Z,22.25
2023-01-30T19:38:01.963Z,30.77
2023-01-30T19:40:35.633Z,16.45
2023-01-30T19:43:11.924Z,14.27
2023-01-30T19:45:45.594Z,13.52
2023-01-30T19:48:19.189Z,16.88
2023-01-30T19:50:53.025Z,15.38
2023-01-30T19:53:26.780Z,12.95
2023-01-30T19:56:00.713Z,14.05
2023-01-30T19:58:36.049Z,14.32
2023-01-30T20:01:11.812Z,11.77
2023-01-30T20:03:45.710Z,13.20
2023-01-30T20:06:20.833Z,15.32
2023-01-30T20:08:58.301Z,13.63
2023-01-30T20:11:32.152Z,15.60
2023-01-30T20:14:07.919Z,16.00
2023-01-30T20:16:41.958Z,15.02
2023-01-30T20:19:17.203Z,12.40
2023-01-30T20:21:50.819Z,12.80
2023-01-30T20:24:24.372Z,15.50
2023-01-30T20:26:57.997Z,15.50
2023-01-30T20:29:33.085Z,16.55
2023-01-30T20:32:06.993Z,15.80
2023-01-30T20:34:40.586Z,14.65
2023-01-30T20:37:14.284Z,16.48
2023-01-30T20:39:51.025Z,16.98
2023-01-30T20:42:24.978Z,15.60
2023-01-30T20:45:00.437Z,15.50
2023-01-30T20:47:35.458Z,16.00
2023-01-30T20:50:11.423Z,14.57
2023-01-30T20:52:45.535Z,13.43
2023-01-30T20:55:19.277Z,14.88
2023-01-30T20:57:52.976Z,15.07
2023-01-30T21:00:27.980Z,14.45
2023-01-30T21:03:01.926Z,13.63
2023-01-30T21:05:35.439Z,15.55
2023-01-30T21:08:09.041Z,15.02
2023-01-30T21:10:46.775Z,14.60
2023-01-30T21:13:20.346Z,12.60
2023-01-30T21:16:04.046Z,14.10
2023-01-30T21:18:39.677Z,13.82
2023-01-30T21:21:18.278Z,12.32
2023-01-30T21:24:14.522Z,13.07
2023-01-30T21:27:06.824Z,14.27
2023-01-30T21:29:58.930Z,13.67
2023-01-30T21:32:52.075Z,13.48
2023-01-30T21:35:44.013Z,13.73
2023-01-30T21:38:53.617Z,13.38
2023-01-30T21:42:04.313Z,13.20
2023-01-30T21:44:56.192Z,14.40
2023-01-30T21:47:54.179Z,13.18
2023-01-30T21:50:48.445Z,14.48
2023-01-30T21:53:41.192Z,12.75
2023-01-30T21:56:34.516Z,13.75
2023-01-30T21:59:26.662Z,11.45
2023-01-30T22:02:19.225Z,12.00
2023-01-30T22:05:12.949Z,13.80
2023-01-30T22:08:06.272Z,13.30
2023-01-30T22:11:09.803Z,12.10
2023-01-30T22:14:01.662Z,10.32
2023-01-30T22:16:53.528Z,9.30
2023-01-30T22:19:46.470Z,12.20
2023-01-30T22:22:39.955Z,17.35
2023-01-30T22:25:31.889Z,18.70
2023-01-30T22:28:24.061Z,15.38
2023-01-30T22:31:17.813Z,15.20
2023-01-30T22:34:10.046Z,15.05
2023-01-30T22:37:02.132Z,12.40
2023-01-30T22:39:55.392Z,13.00
2023-01-30T22:42:50.428Z,11.98
2023-01-30T22:45:42.410Z,12.02
2023-01-30T22:48:34.970Z,11.75
2023-01-30T22:51:28.373Z,9.35
2023-01-30T22:54:20.314Z,11.40
2023-01-30T22:57:13.515Z,12.40
2023-01-30T23:00:06.875Z,12.73
2023-01-30T23:02:58.900Z,12.35
2023-01-30T23:06:00.916Z,12.95
2023-01-30T23:08:54.897Z,14.10
2023-01-30T23:12:09.052Z,12.95
2023-01-30T23:15:02.590Z,12.93
2023-01-30T23:18:12.031Z,13.57
2023-01-30T23:21:04.459Z,15.07
2023-01-30T23:23:57.977Z,15.18
2023-01-30T23:26:51.946Z,14.73
2023-01-30T23:29:44.243Z,16.35
2023-01-30T23:32:38.130Z,15.40
2023-01-30T23:35:30.071Z,15.18
2023-01-30T23:38:24.113Z,15.05
2023-01-30T23:41:18.230Z,14.95
2023-01-30T23:44:10.752Z,15.43
2023-01-30T23:47:02.985Z,14.07
2023-01-30T23:49:56.449Z,14.15
2023-01-30T23:52:48.525Z,16.15
2023-01-30T23:55:40.599Z,18.15
2023-01-30T23:58:32.747Z,19.10
